Air Navigation Services of Czech Republic
Airport: LKMT Updated:  15.09.2019 22:00:26  UTC
 METAR LKMT 15.09. 22:00 ...
METAR LKMT 152200Z 00000KT CAVOK 13/10 Q1020 NOSIG RMK REG QNH 1018=
 TAF LKMT 15.09. 17:00 ...
TAF LKMT 151700Z 1518/1700 21010KT CAVOK      PROB30 TEMPO 1518/1520 22012G24KT      BECMG 1604/1606 03008KT      BECMG 1610/1612 9999 BKN030      PROB30 TEMPO 1616/1618 -RA      TEMPO 1618/1700 7000 RA BKN020      PROB30 TEMPO 1619/1700 4000 RA BR BKN015=